Time;durP1;ratioP1;P1;durP2;ratioP2;P2;SDS_P1;SDS_P2;PMS_P1;PMS_P2;Temp;Humidity;BMP_temperature;BMP_pressure;BME280_temperature;BME280_humidity;BME280_pressure;Samples;Min_cycle;Max_cycle;Signal;HPM_P1;HPM_P2
2022/11/16 00:01:31;;;;;;;3.90;2.97;;;10.70;99.90;;;;;;4993466;28;20570;-71
2022/11/16 00:03:59;;;;;;;5.53;3.73;;;10.70;99.90;;;;;;4974325;28;20493;-71
2022/11/16 00:06:27;;;;;;;4.37;3.30;;;10.80;99.90;;;;;;4986129;28;20449;-71
2022/11/16 00:11:41;;;;;;;3.33;2.40;;;10.90;99.90;;;;;;4979660;28;20500;-70
2022/11/16 00:14:09;;;;;;;3.47;2.57;;;10.90;99.90;;;;;;4978415;28;20949;-71
2022/11/16 00:16:36;;;;;;;5.40;2.87;;;10.90;99.90;;;;;;4987411;28;20460;-71
2022/11/16 00:19:05;;;;;;;7.50;2.40;;;10.90;99.90;;;;;;4974140;28;20454;-71
2022/11/16 00:21:32;;;;;;;3.87;2.97;;;10.90;99.90;;;;;;4988015;28;20460;-70
2022/11/16 00:23:59;;;;;;;4.37;2.47;;;10.90;99.90;;;;;;4972944;28;20682;-71
2022/11/16 00:26:26;;;;;;;4.23;2.40;;;10.90;99.90;;;;;;4990257;28;21873;-71
2022/11/16 00:28:54;;;;;;;3.70;1.97;;;10.80;99.90;;;;;;4988337;28;20525;-71
2022/11/16 00:31:23;;;;;;;2.67;2.23;;;10.80;99.90;;;;;;4989364;28;20829;-71
2022/11/16 00:33:50;;;;;;;4.20;2.20;;;10.80;99.90;;;;;;4985691;28;20446;-71
2022/11/16 00:36:17;;;;;;;1.70;1.53;;;10.90;99.90;;;;;;4989438;28;20457;-71
2022/11/16 00:38:44;;;;;;;3.17;2.27;;;10.90;99.90;;;;;;4981640;28;20465;-71
2022/11/16 00:41:11;;;;;;;4.43;3.23;;;10.90;99.90;;;;;;4986574;28;20457;-71
2022/11/16 00:43:38;;;;;;;3.60;2.13;;;10.90;99.90;;;;;;4983135;28;20481;-70
2022/11/16 00:46:05;;;;;;;3.10;2.77;;;10.90;99.90;;;;;;4991326;28;20459;-71
2022/11/16 00:48:33;;;;;;;3.07;2.63;;;10.90;99.90;;;;;;4992447;28;20463;-71
2022/11/16 00:51:00;;;;;;;4.70;2.47;;;10.80;99.90;;;;;;4988537;28;20803;-72
2022/11/16 00:53:27;;;;;;;5.90;2.63;;;10.70;99.90;;;;;;4992528;28;20535;-71
2022/11/16 00:55:53;;;;;;;4.20;2.60;;;10.70;99.90;;;;;;4992469;28;20483;-71
2022/11/16 00:58:20;;;;;;;4.87;2.73;;;10.70;99.90;;;;;;4992910;28;20457;-71
2022/11/16 01:00:47;;;;;;;4.20;2.10;;;10.70;99.90;;;;;;4979358;28;20493;-71
2022/11/16 01:03:14;;;;;;;3.77;2.43;;;10.70;99.90;;;;;;4979822;28;20477;-71
2022/11/16 01:05:42;;;;;;;3.03;2.13;;;10.70;99.90;;;;;;4985062;28;20463;-70
2022/11/16 01:08:09;;;;;;;5.40;2.50;;;10.70;99.90;;;;;;4991835;28;20465;-71
2022/11/16 01:10:38;;;;;;;3.00;2.70;;;10.70;99.90;;;;;;4987571;28;20552;-70
2022/11/16 01:13:04;;;;;;;4.93;4.37;;;10.60;99.90;;;;;;4979160;28;20455;-71
2022/11/16 01:15:31;;;;;;;5.00;3.07;;;10.60;99.90;;;;;;4991152;28;20941;-71
2022/11/16 01:17:58;;;;;;;5.33;3.37;;;10.60;99.90;;;;;;4991345;28;20199;-70
2022/11/16 01:20:27;;;;;;;3.60;2.17;;;10.70;99.90;;;;;;4989166;28;20968;-70
2022/11/16 01:22:56;;;;;;;4.77;2.37;;;10.70;99.90;;;;;;4990972;28;20534;-70
2022/11/16 01:25:22;;;;;;;3.33;2.00;;;10.70;99.90;;;;;;4985291;28;20488;-70
2022/11/16 01:27:49;;;;;;;2.90;1.90;;;10.60;99.90;;;;;;4984891;28;20560;-69
2022/11/16 01:30:16;;;;;;;6.37;2.27;;;10.60;99.90;;;;;;4980167;28;20471;-70
2022/11/16 01:32:43;;;;;;;4.37;2.70;;;10.70;99.90;;;;;;4987086;28;20454;-70
2022/11/16 01:35:14;;;;;;;2.30;1.50;;;10.70;99.90;;;;;;4983580;28;20462;-70
2022/11/16 01:37:41;;;;;;;2.80;2.33;;;10.70;99.90;;;;;;4980006;28;20449;-70
2022/11/16 01:40:11;;;;;;;4.07;2.03;;;10.70;99.90;;;;;;4980709;28;20969;-69
2022/11/16 01:42:38;;;;;;;5.27;3.13;;;10.70;99.90;;;;;;4983756;28;20451;-69
2022/11/16 01:45:15;;;;;;;3.20;2.33;;;10.70;99.90;;;;;;4981430;28;21002;-70
2022/11/16 01:47:42;;;;;;;3.27;2.23;;;10.70;99.90;;;;;;4989701;28;20468;-69
2022/11/16 01:50:13;;;;;;;3.13;2.30;;;10.70;99.90;;;;;;4991760;28;20903;-70
2022/11/16 01:52:44;;;;;;;2.40;2.07;;;10.70;99.90;;;;;;4990970;28;20448;-70
2022/11/16 01:55:12;;;;;;;3.10;2.17;;;10.70;99.90;;;;;;4991691;28;20466;-70
2022/11/16 01:57:42;;;;;;;3.93;2.30;;;10.70;99.90;;;;;;4990068;28;20456;-70
2022/11/16 02:00:12;;;;;;;5.00;2.10;;;10.60;99.90;;;;;;4986166;28;20467;-70
2022/11/16 02:02:38;;;;;;;5.63;3.00;;;10.70;99.90;;;;;;4989149;28;20483;-69
2022/11/16 02:05:07;;;;;;;4.73;3.10;;;10.60;99.90;;;;;;4981867;28;20491;-71
2022/11/16 02:10:54;;;;;;;2.90;2.60;;;10.60;99.90;;;;;;4975727;28;20944;-69
2022/11/16 02:13:33;;;;;;;2.53;2.10;;;10.60;99.90;;;;;;4976546;28;20768;-70
2022/11/16 02:16:11;;;;;;;2.10;1.90;;;10.50;99.90;;;;;;4981613;28;20501;-70
2022/11/16 02:18:48;;;;;;;2.23;1.93;;;10.40;99.90;;;;;;4989783;28;20452;-68
2022/11/16 02:21:41;;;;;;;2.90;1.70;;;10.40;99.90;;;;;;4990247;28;20446;-70
2022/11/16 02:24:42;;;;;;;3.03;1.90;;;10.40;99.90;;;;;;4964966;28;20812;-70
2022/11/16 02:27:57;;;;;;;1.90;1.63;;;10.40;99.90;;;;;;4977934;28;20446;-71
2022/11/16 02:30:25;;;;;;;3.13;1.50;;;10.50;99.90;;;;;;4971627;28;20463;-70
2022/11/16 02:32:57;;;;;;;2.10;1.90;;;10.50;99.90;;;;;;4986556;28;20463;-70
2022/11/16 02:35:28;;;;;;;4.00;2.17;;;10.50;99.90;;;;;;4991163;28;20451;-69
2022/11/16 02:37:59;;;;;;;3.10;2.30;;;10.40;99.90;;;;;;4986124;28;20453;-69
2022/11/16 02:40:30;;;;;;;2.77;1.50;;;10.40;99.90;;;;;;4981470;28;20462;-69
2022/11/16 02:43:03;;;;;;;3.57;2.20;;;10.40;99.90;;;;;;4977403;28;20924;-69
2022/11/16 02:45:35;;;;;;;5.30;3.10;;;10.40;99.90;;;;;;4987851;28;20483;-68
2022/11/16 02:48:08;;;;;;;2.90;2.40;;;10.30;99.90;;;;;;4983889;28;20558;-68
2022/11/16 02:50:36;;;;;;;2.67;1.90;;;10.40;99.90;;;;;;4984189;28;20455;-68
2022/11/16 02:53:03;;;;;;;5.70;2.03;;;10.40;99.90;;;;;;4980452;28;20458;-68
2022/11/16 02:55:34;;;;;;;2.33;1.70;;;10.30;99.90;;;;;;4986181;28;20814;-68
2022/11/16 02:58:02;;;;;;;3.00;2.17;;;10.30;99.90;;;;;;4981267;28;20453;-68
2022/11/16 03:00:35;;;;;;;3.70;2.47;;;10.30;99.90;;;;;;4980480;28;20481;-68
2022/11/16 03:03:12;;;;;;;2.60;2.13;;;10.40;99.90;;;;;;4979909;28;20483;-68
2022/11/16 03:05:44;;;;;;;7.20;2.40;;;10.40;99.90;;;;;;4988847;28;20534;-68
2022/11/16 03:08:18;;;;;;;3.00;2.30;;;10.40;99.90;;;;;;4990359;28;20812;-68
2022/11/16 03:13:36;;;;;;;3.00;1.83;;;10.30;99.90;;;;;;4987905;28;20446;-68
2022/11/16 03:16:11;;;;;;;2.23;1.93;;;10.30;99.90;;;;;;4981250;28;20460;-68
2022/11/16 03:18:39;;;;;;;2.93;2.00;;;10.30;99.90;;;;;;4984405;28;20448;-68
2022/11/16 03:21:13;;;;;;;3.10;2.07;;;10.40;99.90;;;;;;4990413;28;20456;-68
2022/11/16 03:23:40;;;;;;;2.70;2.00;;;10.40;99.90;;;;;;4970480;28;20448;-68
2022/11/16 03:26:10;;;;;;;2.80;1.60;;;10.40;99.90;;;;;;4984652;28;20460;-68
2022/11/16 03:28:46;;;;;;;4.20;2.07;;;10.50;99.90;;;;;;4982337;28;20468;-68
2022/11/16 03:31:21;;;;;;;2.87;2.07;;;10.50;99.90;;;;;;4987027;28;20464;-69
2022/11/16 03:33:52;;;;;;;2.40;1.63;;;10.40;99.90;;;;;;4981092;28;20467;-68
2022/11/16 03:36:25;;;;;;;4.87;2.50;;;10.40;99.90;;;;;;4987616;28;20456;-68
2022/11/16 03:38:52;;;;;;;1.83;1.60;;;10.40;99.90;;;;;;4980558;28;20461;-68
2022/11/16 03:41:22;;;;;;;3.13;2.63;;;10.50;99.90;;;;;;4993129;28;20456;-68
2022/11/16 03:43:50;;;;;;;3.10;2.27;;;10.50;99.90;;;;;;4976639;28;20457;-68
2022/11/16 03:46:19;;;;;;;2.40;1.80;;;10.50;99.90;;;;;;4990958;28;20459;-68
2022/11/16 03:48:46;;;;;;;2.10;1.67;;;10.50;99.90;;;;;;4979681;28;20463;-68
2022/11/16 03:51:13;;;;;;;3.10;2.20;;;10.50;99.90;;;;;;4986222;28;20453;-68
2022/11/16 03:53:40;;;;;;;1.53;1.20;;;10.70;99.90;;;;;;4975310;28;20479;-67
2022/11/16 03:56:07;;;;;;;2.83;1.60;;;10.80;99.90;;;;;;4993699;28;20467;-69
2022/11/16 03:58:34;;;;;;;3.63;2.40;;;10.70;99.90;;;;;;4980696;28;20456;-69
2022/11/16 04:01:02;;;;;;;3.43;2.17;;;10.60;99.90;;;;;;4982022;28;20486;-70
2022/11/16 04:03:30;;;;;;;2.30;1.90;;;10.60;99.90;;;;;;4991321;28;20458;-68
2022/11/16 04:25:23;;;;;;;3.23;2.20;;;10.50;99.90;;;;;;4989681;28;20988;-68
2022/11/16 04:38:45;;;;;;;3.83;2.23;;;10.90;99.90;;;;;;4985750;28;20606;-68
2022/11/16 04:42:13;;;;;;;2.43;1.30;;;10.90;99.90;;;;;;4990644;28;20453;-68
2022/11/16 04:43:58;;;;;;;2.30;1.70;;;10.90;99.90;;;;;;4983663;28;20942;-68
2022/11/16 04:49:09;;;;;;;3.70;2.00;;;10.90;99.90;;;;;;4976991;28;20433;-68
2022/11/16 04:51:37;;;;;;;3.20;1.60;;;10.80;99.90;;;;;;4984606;28;20462;-69
2022/11/16 04:54:04;;;;;;;3.43;2.20;;;10.90;99.90;;;;;;4978420;28;20446;-70
2022/11/16 04:56:30;;;;;;;3.43;2.00;;;10.80;99.90;;;;;;4983961;28;20575;-68
2022/11/16 04:58:57;;;;;;;2.20;1.70;;;10.70;99.90;;;;;;4977243;28;20468;-70
2022/11/16 05:04:05;;;;;;;3.00;1.60;;;10.60;99.90;;;;;;4972406;28;20792;-69
2022/11/16 05:06:32;;;;;;;2.90;1.80;;;10.60;99.90;;;;;;4986431;28;20456;-68
2022/11/16 05:09:00;;;;;;;1.10;0.90;;;10.60;99.90;;;;;;4980219;28;20582;-69
2022/11/16 05:11:27;;;;;;;2.63;1.27;;;10.70;99.90;;;;;;4982348;28;20453;-74
2022/11/16 05:13:53;;;;;;;2.47;1.67;;;10.70;99.90;;;;;;4976570;28;20800;-69
2022/11/16 05:16:21;;;;;;;3.83;2.10;;;10.70;99.90;;;;;;4979210;28;20457;-69
2022/11/16 05:20:59;;;;;;;2.80;1.70;;;10.70;99.90;;;;;;4987796;28;20468;-68
2022/11/16 05:21:34;;;;;;;5.17;2.10;;;10.60;99.90;;;;;;4974874;28;20531;-68
2022/11/16 05:26:46;;;;;;;2.70;1.67;;;10.60;99.90;;;;;;4976455;28;20201;-68
2022/11/16 05:29:13;;;;;;;1.70;1.53;;;10.70;99.90;;;;;;4985105;28;20453;-70
2022/11/16 05:31:40;;;;;;;2.73;1.83;;;10.70;99.90;;;;;;4973499;28;20476;-69
2022/11/16 05:34:06;;;;;;;2.60;1.67;;;10.70;99.90;;;;;;4984258;28;20468;-71
2022/11/16 05:36:33;;;;;;;1.90;1.40;;;10.60;99.90;;;;;;4986545;28;20456;-70
2022/11/16 05:39:01;;;;;;;2.67;1.47;;;10.60;99.90;;;;;;4988252;28;20460;-71
2022/11/16 05:41:28;;;;;;;1.67;1.47;;;10.60;99.90;;;;;;4985042;28;20467;-72
2022/11/16 05:43:55;;;;;;;2.90;1.50;;;10.50;99.90;;;;;;4985067;28;20475;-69
2022/11/16 05:46:22;;;;;;;1.97;1.30;;;10.50;99.90;;;;;;4972836;28;20493;-70
2022/11/16 05:48:50;;;;;;;2.63;1.47;;;10.50;99.90;;;;;;4984740;28;20452;-71
2022/11/16 05:51:17;;;;;;;1.70;1.33;;;10.50;99.90;;;;;;4985825;28;20465;-69
2022/11/16 05:53:44;;;;;;;2.07;1.33;;;10.50;99.90;;;;;;4985145;28;20460;-69
2022/11/16 05:56:13;;;;;;;2.30;1.50;;;10.50;99.90;;;;;;4985528;28;20460;-70
2022/11/16 05:58:39;;;;;;;2.03;1.50;;;10.50;99.90;;;;;;4971778;28;20457;-69
2022/11/16 06:01:06;;;;;;;1.90;1.47;;;10.50;99.90;;;;;;4991191;28;20491;-70
2022/11/16 06:03:34;;;;;;;2.03;1.80;;;10.50;99.90;;;;;;4990568;28;20444;-72
2022/11/16 06:06:01;;;;;;;2.37;1.83;;;10.40;99.90;;;;;;4972237;28;20992;-70
2022/11/16 06:08:28;;;;;;;1.60;1.37;;;10.50;99.90;;;;;;4980255;28;20468;-70
2022/11/16 06:10:55;;;;;;;1.60;1.50;;;10.50;99.90;;;;;;4974774;28;20457;-70
2022/11/16 06:13:23;;;;;;;5.23;1.53;;;10.40;99.90;;;;;;4985742;28;20455;-70
2022/11/16 06:15:50;;;;;;;2.20;1.90;;;10.40;99.90;;;;;;4972230;28;20461;-70
2022/11/16 06:18:17;;;;;;;2.53;1.60;;;10.40;99.90;;;;;;4984757;28;20942;-70
2022/11/16 06:20:43;;;;;;;5.97;1.63;;;10.40;99.90;;;;;;4981541;28;20460;-69
2022/11/16 06:23:10;;;;;;;4.10;2.20;;;10.40;99.90;;;;;;4976168;28;20449;-69
2022/11/16 06:25:38;;;;;;;2.23;1.40;;;10.40;99.90;;;;;;4981453;28;20495;-69
2022/11/16 06:28:06;;;;;;;3.50;1.90;;;10.30;99.90;;;;;;4975382;28;20468;-70
2022/11/16 06:30:34;;;;;;;3.90;2.17;;;10.30;99.90;;;;;;4982242;28;20456;-70
2022/11/16 06:33:01;;;;;;;2.03;1.80;;;10.30;99.90;;;;;;4974601;28;20465;-71
2022/11/16 06:35:27;;;;;;;2.20;1.73;;;10.40;99.90;;;;;;4982617;28;20456;-71
2022/11/16 06:37:54;;;;;;;2.83;1.70;;;10.40;99.90;;;;;;4974333;28;20454;-71
2022/11/16 06:40:21;;;;;;;2.67;2.47;;;10.40;99.90;;;;;;4982492;28;20448;-71
2022/11/16 06:42:48;;;;;;;2.97;1.97;;;10.40;99.90;;;;;;4977995;28;20453;-71
2022/11/16 06:45:15;;;;;;;3.00;2.17;;;10.50;99.90;;;;;;4981412;28;20488;-71
2022/11/16 06:47:43;;;;;;;2.47;1.50;;;10.40;99.90;;;;;;4974652;28;20458;-71
2022/11/16 06:50:11;;;;;;;1.90;1.57;;;10.50;99.90;;;;;;4981407;28;20458;-71
2022/11/16 06:52:37;;;;;;;3.10;1.70;;;10.50;99.90;;;;;;4975694;28;20475;-70
2022/11/16 06:55:05;;;;;;;2.33;1.60;;;10.50;99.90;;;;;;4980827;28;20952;-71
2022/11/16 06:57:34;;;;;;;3.40;2.20;;;10.50;99.90;;;;;;4976285;28;20449;-71
2022/11/16 07:00:01;;;;;;;1.97;1.40;;;10.50;99.90;;;;;;4979467;28;20461;-71
2022/11/16 07:02:27;;;;;;;4.60;2.53;;;10.60;99.90;;;;;;4984919;28;20456;-71
2022/11/16 07:04:56;;;;;;;2.33;1.67;;;10.60;99.90;;;;;;4983226;28;20496;-71
2022/11/16 07:07:22;;;;;;;6.60;2.47;;;10.60;99.90;;;;;;4977680;28;20534;-71
2022/11/16 07:09:50;;;;;;;2.93;2.17;;;10.70;99.90;;;;;;4990539;28;20908;-71
2022/11/16 07:12:16;;;;;;;2.23;1.67;;;10.70;99.90;;;;;;4973427;28;20452;-71
2022/11/16 07:14:44;;;;;;;1.80;1.50;;;10.70;99.90;;;;;;4975562;28;20461;-71
2022/11/16 07:17:11;;;;;;;2.77;2.00;;;10.80;99.90;;;;;;4988624;28;20817;-71
2022/11/16 07:19:38;;;;;;;5.90;2.13;;;10.80;99.90;;;;;;4974710;28;20458;-70
2022/11/16 07:22:07;;;;;;;2.90;2.13;;;10.80;99.90;;;;;;4988499;28;20488;-71
2022/11/16 07:24:33;;;;;;;8.67;2.23;;;10.70;99.90;;;;;;4976569;28;20475;-71
2022/11/16 07:27:00;;;;;;;3.53;2.20;;;10.70;99.90;;;;;;4994672;28;20499;-71
2022/11/16 07:29:27;;;;;;;2.73;1.90;;;10.80;99.90;;;;;;4993365;28;20978;-71
2022/11/16 07:31:54;;;;;;;2.07;1.60;;;;;;;;;;4974752;28;20469;-71
2022/11/16 07:34:21;;;;;;;2.90;2.10;;;;;;;;;;4988566;28;20473;-71
2022/11/16 07:36:48;;;;;;;2.37;2.00;;;10.80;99.90;;;;;;4974834;28;20457;-71
2022/11/16 07:39:16;;;;;;;3.00;1.60;;;11.10;99.90;;;;;;4988071;28;20462;-71
2022/11/16 07:41:43;;;;;;;7.07;2.80;;;11.10;99.90;;;;;;4984594;28;20812;-71
2022/11/16 07:44:11;;;;;;;2.83;1.80;;;11.20;99.90;;;;;;4988000;28;20511;-71
2022/11/16 07:46:37;;;;;;;2.57;1.60;;;11.30;99.90;;;;;;4974514;28;20486;-70
2022/11/16 07:49:04;;;;;;;2.00;1.80;;;11.30;99.90;;;;;;4988070;28;20460;-70
2022/11/16 07:51:32;;;;;;;2.80;1.37;;;11.30;99.90;;;;;;4975392;28;20505;-71
2022/11/16 07:53:58;;;;;;;2.93;1.57;;;11.40;99.90;;;;;;4987792;28;20441;-71
2022/11/16 07:56:26;;;;;;;2.07;1.40;;;11.40;99.90;;;;;;4975043;28;20462;-71
2022/11/16 07:58:53;;;;;;;3.40;1.50;;;11.50;99.90;;;;;;4987107;28;20807;-71
2022/11/16 08:01:20;;;;;;;2.17;1.27;;;11.50;99.90;;;;;;4985059;28;20494;-71
2022/11/16 08:03:47;;;;;;;2.27;1.07;;;11.60;99.90;;;;;;4980716;28;20453;-70
2022/11/16 08:06:16;;;;;;;2.50;0.80;;;11.60;99.90;;;;;;4984568;28;20482;-71
2022/11/16 08:08:43;;;;;;;1.63;1.03;;;11.60;99.90;;;;;;4983408;28;20465;-71
2022/11/16 08:11:11;;;;;;;1.83;1.00;;;;;;;;;;4984143;28;20447;-71
2022/11/16 08:13:41;;;;;;;1.53;0.83;;;11.60;99.90;;;;;;4987017;28;20451;-70
2022/11/16 08:16:10;;;;;;;2.30;1.03;;;11.70;99.90;;;;;;4974950;28;20489;-71
2022/11/16 08:18:38;;;;;;;1.30;0.83;;;11.70;99.90;;;;;;4986885;28;20454;-70
2022/11/16 08:21:06;;;;;;;3.40;1.30;;;11.70;99.90;;;;;;4975226;28;20455;-70
2022/11/16 08:23:33;;;;;;;1.07;0.90;;;11.80;99.90;;;;;;4987059;28;20456;-70
2022/11/16 08:26:01;;;;;;;2.63;1.00;;;11.80;99.90;;;;;;4973630;28;20496;-70
2022/11/16 08:28:29;;;;;;;1.47;1.07;;;11.80;99.90;;;;;;4987325;28;20464;-70
2022/11/16 08:30:57;;;;;;;1.30;1.07;;;11.80;99.90;;;;;;4973997;28;20520;-70
2022/11/16 08:33:25;;;;;;;2.23;1.37;;;11.90;99.90;;;;;;4974473;28;20459;-70
2022/11/16 08:35:53;;;;;;;2.03;1.10;;;11.90;99.90;;;;;;4974347;28;20505;-70
2022/11/16 08:38:19;;;;;;;1.93;0.87;;;11.90;99.90;;;;;;4986472;28;20466;-70
2022/11/16 08:40:49;;;;;;;2.23;1.30;;;11.90;99.90;;;;;;4982946;28;20949;-70
2022/11/16 08:43:16;;;;;;;1.27;1.17;;;11.90;99.90;;;;;;4982072;28;20481;-70
2022/11/16 08:45:47;;;;;;;2.23;1.00;;;11.80;99.90;;;;;;4978979;28;20505;-70
2022/11/16 08:48:15;;;;;;;1.00;0.60;;;11.80;99.90;;;;;;4982130;28;20449;-71
2022/11/16 08:50:42;;;;;;;5.43;1.00;;;11.70;99.90;;;;;;4977634;28;20818;-70
2022/11/16 08:53:09;;;;;;;1.33;0.70;;;11.80;99.90;;;;;;4983063;28;20450;-70
2022/11/16 08:55:36;;;;;;;1.63;0.83;;;12.00;99.90;;;;;;4978033;28;20453;-70
2022/11/16 08:58:03;;;;;;;1.50;0.73;;;11.90;99.90;;;;;;4982770;28;20975;-70
2022/11/16 09:00:30;;;;;;;1.27;0.67;;;11.90;99.90;;;;;;4980252;28;20484;-71
2022/11/16 09:02:57;;;;;;;1.17;1.00;;;11.80;99.90;;;;;;4983099;28;20926;-70
2022/11/16 09:05:25;;;;;;;1.43;1.00;;;11.70;99.90;;;;;;4986647;28;20458;-70
2022/11/16 09:07:52;;;;;;;1.67;0.83;;;11.70;99.90;;;;;;4975346;28;20933;-70
2022/11/16 09:10:21;;;;;;;0.83;0.60;;;12.00;99.90;;;;;;4990094;28;20457;-71
2022/11/16 09:12:48;;;;;;;0.90;0.67;;;12.00;99.90;;;;;;4983567;28;20449;-70
2022/11/16 09:15:15;;;;;;;2.20;0.70;;;12.00;99.90;;;;;;4976207;28;20454;-71
2022/11/16 09:17:42;;;;;;;1.00;0.50;;;11.90;99.90;;;;;;4983022;28;20457;-70
2022/11/16 09:20:09;;;;;;;2.37;0.80;;;11.80;99.90;;;;;;4975681;28;20949;-70
2022/11/16 09:22:37;;;;;;;2.50;0.80;;;11.80;99.90;;;;;;4984209;28;20880;-70
2022/11/16 09:25:05;;;;;;;1.37;0.70;;;11.80;99.90;;;;;;4975801;28;20466;-70
2022/11/16 09:27:32;;;;;;;1.37;0.70;;;11.80;99.90;;;;;;4983777;28;20493;-70
2022/11/16 09:29:59;;;;;;;3.53;0.80;;;11.90;99.90;;;;;;4975187;28;20454;-71
2022/11/16 09:32:25;;;;;;;1.83;0.90;;;11.90;99.90;;;;;;4983925;28;20471;-71
2022/11/16 09:34:53;;;;;;;1.17;0.70;;;11.90;99.90;;;;;;4973913;28;20454;-71
2022/11/16 09:37:19;;;;;;;1.70;0.80;;;11.90;99.90;;;;;;4983836;28;20457;-70
2022/11/16 09:39:48;;;;;;;1.47;0.73;;;12.00;99.90;;;;;;4976443;28;20465;-70
2022/11/16 09:42:27;;;;;;;1.77;0.80;;;12.20;99.50;;;;;;4981553;28;20457;-71
2022/11/16 09:45:03;;;;;;;1.30;0.80;;;12.30;19.10;;;;;;4979267;28;20816;-71
2022/11/16 09:47:43;;;;;;;1.00;0.63;;;12.40;1.00;;;;;;4977987;28;20536;-71
2022/11/16 09:50:31;;;;;;;2.00;0.73;;;12.40;1.00;;;;;;4982433;28;20452;-71
2022/11/16 09:53:04;;;;;;;3.87;1.30;;;12.60;1.00;;;;;;4972613;28;20802;-71
2022/11/16 09:55:37;;;;;;;1.77;0.80;;;12.60;1.00;;;;;;4985951;28;20464;-71
2022/11/16 09:58:13;;;;;;;1.83;0.80;;;12.50;1.00;;;;;;4972845;28;20446;-71
2022/11/16 10:00:44;;;;;;;3.00;0.90;;;12.60;1.00;;;;;;4988188;28;20834;-70
2022/11/16 10:03:13;;;;;;;1.00;0.80;;;12.70;1.00;;;;;;4992112;28;20467;-71
2022/11/16 10:05:46;;;;;;;2.03;0.80;;;12.70;1.00;;;;;;4973012;28;20450;-71
2022/11/16 10:08:17;;;;;;;1.03;0.70;;;12.80;1.00;;;;;;4979911;28;20450;-71
2022/11/16 10:10:56;;;;;;;2.73;0.87;;;12.90;99.90;;;;;;4974751;28;20446;-71
2022/11/16 10:13:35;;;;;;;1.40;0.80;;;13.00;1.00;;;;;;4985626;28;20460;-71
2022/11/16 10:16:06;;;;;;;0.97;0.77;;;13.20;99.90;;;;;;4972338;28;20461;-71
2022/11/16 10:18:46;;;;;;;0.80;0.60;;;13.20;99.90;;;;;;4985244;28;20450;-71
2022/11/16 10:21:31;;;;;;;2.20;0.60;;;13.20;99.90;;;;;;4972829;28;20765;-71
2022/11/16 10:24:24;;;;;;;1.50;0.73;;;13.20;99.90;;;;;;4971727;28;20465;-71
2022/11/16 10:27:02;;;;;;;1.30;1.00;;;13.10;99.90;;;;;;4977554;28;20489;-71
2022/11/16 10:29:42;;;;;;;1.20;0.80;;;13.10;99.90;;;;;;4977598;28;20450;-71
2022/11/16 10:32:24;;;;;;;0.97;0.60;;;13.10;99.90;;;;;;4981339;28;20964;-71
2022/11/16 10:34:53;;;;;;;5.63;1.17;;;13.20;24.10;;;;;;4972798;28;20458;-71
2022/11/16 10:37:21;;;;;;;0.80;0.63;;;13.10;1.00;;;;;;4983231;28;20959;-71
2022/11/16 10:39:51;;;;;;;2.87;0.60;;;13.00;99.90;;;;;;4974283;28;20454;-71
2022/11/16 10:42:27;;;;;;;3.30;0.93;;;13.00;99.90;;;;;;4979103;28;20462;-71
2022/11/16 10:45:02;;;;;;;1.47;0.60;;;13.10;99.90;;;;;;4978462;28;20448;-71
2022/11/16 10:47:37;;;;;;;1.00;0.70;;;13.00;99.90;;;;;;4975907;28;20485;-71
2022/11/16 10:50:25;;;;;;;1.37;0.87;;;13.00;99.90;;;;;;4981527;28;20441;-71
2022/11/16 10:52:52;;;;;;;0.80;0.60;;;13.00;99.90;;;;;;4971273;28;20803;-71
2022/11/16 10:55:21;;;;;;;1.10;0.67;;;13.10;99.90;;;;;;4984740;28;20804;-71
2022/11/16 10:57:57;;;;;;;1.57;1.00;;;13.20;99.90;;;;;;4971127;28;20455;-71
2022/11/16 11:00:40;;;;;;;1.33;0.90;;;13.40;99.90;;;;;;4986315;28;20492;-71
2022/11/16 11:03:09;;;;;;;0.80;0.60;;;13.50;1.00;;;;;;4991701;28;20547;-70
2022/11/16 11:05:37;;;;;;;0.93;0.63;;;13.60;99.90;;;;;;4973410;28;20454;-71
2022/11/16 11:08:06;;;;;;;2.10;0.80;;;13.60;99.90;;;;;;4979393;28;20848;-71
2022/11/16 11:10:34;;;;;;;1.33;0.80;;;13.90;99.90;;;;;;4974895;28;20533;-71
2022/11/16 11:13:20;;;;;;;1.43;0.60;;;14.00;99.90;;;;;;4983541;28;20477;-71
2022/11/16 11:15:50;;;;;;;0.80;0.50;;;14.00;1.00;;;;;;4982681;28;20460;-71
2022/11/16 11:18:24;;;;;;;1.93;0.80;;;13.70;1.00;;;;;;4984806;28;20445;-71
2022/11/16 11:21:00;;;;;;;1.03;0.63;;;13.80;99.90;;;;;;4971723;28;20457;-71
2022/11/16 11:23:27;;;;;;;1.50;0.70;;;13.60;1.00;;;;;;4984670;28;20454;-71
2022/11/16 11:25:56;;;;;;;0.80;0.70;;;13.60;97.90;;;;;;4971569;28;20816;-71
2022/11/16 11:28:26;;;;;;;1.10;0.70;;;13.50;99.90;;;;;;4984798;28;20467;-71
2022/11/16 11:30:59;;;;;;;0.70;0.53;;;13.50;1.00;;;;;;4971515;28;20458;-71
2022/11/16 11:33:29;;;;;;;0.77;0.60;;;13.50;95.90;;;;;;4978938;28;20460;-71
2022/11/16 11:36:02;;;;;;;1.90;1.07;;;13.50;99.90;;;;;;4977051;28;20842;-71
2022/11/16 11:38:29;;;;;;;1.47;0.60;;;13.40;99.90;;;;;;4980212;28;20457;-71
2022/11/16 11:40:58;;;;;;;0.80;0.50;;;13.40;1.00;;;;;;4985313;28;20805;-72
2022/11/16 11:43:28;;;;;;;0.83;0.70;;;13.40;1.00;;;;;;4980695;28;20458;-71
2022/11/16 11:46:02;;;;;;;1.03;0.60;;;13.30;99.90;;;;;;4974712;28;21306;-71
2022/11/16 11:48:46;;;;;;;1.50;0.67;;;13.20;1.00;;;;;;4982084;28;20851;-70
2022/11/16 11:51:21;;;;;;;0.90;0.50;;;13.20;1.00;;;;;;4972224;28;20446;-70
2022/11/16 11:53:53;;;;;;;1.13;0.80;;;13.30;1.00;;;;;;4984163;28;20445;-70
2022/11/16 11:56:20;;;;;;;1.00;0.60;;;13.40;39.50;;;;;;4971951;28;20458;-70
2022/11/16 11:58:50;;;;;;;1.20;0.60;;;13.40;99.90;;;;;;4985444;28;20456;-70
2022/11/16 12:01:51;;;;;;;0.90;0.57;;;13.70;1.00;;;;;;4984378;28;20488;-70
2022/11/16 12:04:46;;;;;;;1.53;0.97;;;14.00;6.30;;;;;;4951085;28;20444;-71
2022/11/16 12:07:24;;;;;;;4.77;0.80;;;14.10;1.00;;;;;;4976251;28;20481;-71
2022/11/16 12:09:56;;;;;;;1.03;0.70;;;14.10;99.90;;;;;;4993060;28;20461;-70
2022/11/16 12:12:42;;;;;;;1.07;0.50;;;14.30;1.00;;;;;;4974882;28;20453;-71
2022/11/16 12:15:40;;;;;;;0.70;0.50;;;14.60;1.00;;;;;;4987635;28;20450;-71
2022/11/16 12:18:27;;;;;;;10.50;0.80;;;14.80;1.00;;;;;;4975426;28;20458;-70
2022/11/16 12:21:01;;;;;;;1.73;0.40;;;15.00;1.00;;;;;;4983290;28;20926;-70
2022/11/16 12:23:44;;;;;;;0.80;0.50;;;15.00;99.90;;;;;;4980332;28;20463;-71
2022/11/16 12:26:19;;;;;;;1.40;0.57;;;14.90;99.90;;;;;;4979903;28;20805;-70
2022/11/16 12:28:56;;;;;;;1.00;0.50;;;15.00;99.90;;;;;;4982292;28;20464;-70
2022/11/16 12:31:48;;;;;;;1.53;0.60;;;15.10;99.90;;;;;;4977650;28;20458;-71
2022/11/16 12:34:23;;;;;;;2.53;0.60;;;15.10;99.90;;;;;;4987295;28;20445;-70
2022/11/16 12:36:59;;;;;;;2.13;0.60;;;15.40;99.90;;;;;;4973566;28;20455;-70
2022/11/16 12:39:33;;;;;;;1.17;0.60;;;15.30;99.90;;;;;;4987434;28;20457;-71
2022/11/16 12:42:31;;;;;;;1.10;0.60;;;15.40;99.90;;;;;;4974154;28;20450;-70
2022/11/16 12:45:21;;;;;;;0.60;0.40;;;15.40;99.90;;;;;;4974140;28;20524;-70
2022/11/16 12:48:10;;;;;;;2.50;0.50;;;15.30;99.90;;;;;;4986077;28;20570;-71
2022/11/16 12:50:48;;;;;;;0.77;0.50;;;15.30;99.90;;;;;;4976134;28;20451;-69
2022/11/16 12:53:44;;;;;;;2.43;0.50;;;15.10;99.90;;;;;;4983673;28;20450;-71
2022/11/16 12:56:22;;;;;;;1.00;0.70;;;15.30;99.90;;;;;;4970743;28;20474;-70
2022/11/16 12:59:16;;;;;;;4.93;0.77;;;15.30;99.90;;;;;;4976491;28;20455;-70
2022/11/16 13:01:53;;;;;;;1.33;0.67;;;15.20;99.90;;;;;;4992322;28;20483;-70
2022/11/16 13:04:25;;;;;;;1.83;1.00;;;15.30;99.90;;;;;;4981847;28;20451;-72
2022/11/16 13:06:56;;;;;;;1.03;0.80;;;15.30;99.90;;;;;;4977237;28;20503;-70
2022/11/16 13:09:27;;;;;;;1.40;0.50;;;15.40;99.90;;;;;;4988826;28;20450;-71
2022/11/16 13:11:57;;;;;;;0.90;0.50;;;15.40;99.90;;;;;;4979716;28;20800;-71
2022/11/16 13:14:28;;;;;;;1.03;0.63;;;15.10;99.90;;;;;;4983192;28;20450;-70
2022/11/16 13:16:56;;;;;;;0.90;0.43;;;14.70;99.90;;;;;;4977196;28;20450;-70
2022/11/16 13:19:24;;;;;;;0.90;0.63;;;14.70;99.90;;;;;;4982126;28;20460;-70
2022/11/16 13:21:58;;;;;;;0.60;0.40;;;14.60;99.90;;;;;;4977360;28;20549;-72
2022/11/16 13:24:45;;;;;;;1.10;0.53;;;14.70;99.90;;;;;;4981333;28;20451;-70
2022/11/16 13:27:28;;;;;;;1.77;0.90;;;15.10;99.90;;;;;;4984560;28;20501;-70
2022/11/16 13:30:00;;;;;;;1.60;0.40;;;15.60;99.90;;;;;;4986098;28;20458;-71
2022/11/16 13:32:37;;;;;;;1.10;0.87;;;15.90;99.90;;;;;;4973829;28;20459;-71
2022/11/16 13:35:06;;;;;;;0.90;0.60;;;15.70;99.90;;;;;;4979956;28;20452;-71
2022/11/16 13:37:47;;;;;;;1.63;0.50;;;15.20;99.90;;;;;;4978897;28;20953;-72
2022/11/16 13:40:28;;;;;;;1.80;0.77;;;15.10;99.90;;;;;;4982139;28;20951;-71
2022/11/16 13:43:07;;;;;;;1.67;0.93;;;14.90;99.90;;;;;;4979270;28;20455;-71
2022/11/16 13:45:38;;;;;;;1.43;0.60;;;14.80;99.90;;;;;;4979879;28;20806;-73
2022/11/16 13:48:17;;;;;;;2.80;0.60;;;14.80;99.90;;;;;;4980258;28;20488;-71
2022/11/16 13:50:50;;;;;;;2.97;1.27;;;14.70;99.90;;;;;;4978991;28;20457;-70
2022/11/16 13:53:25;;;;;;;3.17;0.60;;;14.60;99.90;;;;;;4982405;28;20541;-72
2022/11/16 13:55:57;;;;;;;1.23;0.40;;;14.60;99.90;;;;;;4984782;28;20453;-73